createdAt,value
2023-03-10T00:01:22.387Z,1.91
2023-03-10T00:05:22.598Z,2.18
2023-03-10T00:09:22.717Z,2.48
2023-03-10T00:13:22.908Z,2.10
2023-03-10T00:17:23.027Z,2.28
2023-03-10T00:21:23.228Z,2.23
2023-03-10T00:25:23.430Z,2.20
2023-03-10T00:29:23.595Z,1.94
2023-03-10T00:33:23.782Z,2.16
2023-03-10T00:37:23.995Z,1.99
2023-03-10T00:41:24.210Z,2.42
2023-03-10T00:45:24.359Z,2.40
2023-03-10T00:49:24.521Z,2.15
2023-03-10T00:53:24.715Z,2.56
2023-03-10T00:57:24.885Z,2.14
2023-03-10T01:01:25.197Z,2.42
2023-03-10T01:05:25.261Z,1.96
2023-03-10T01:09:25.452Z,2.38
2023-03-10T01:13:25.644Z,2.43
2023-03-10T01:17:25.845Z,2.28
2023-03-10T01:21:26.033Z,2.10
2023-03-10T01:25:26.198Z,2.23
2023-03-10T01:29:26.420Z,2.00
2023-03-10T01:33:26.560Z,2.08
2023-03-10T01:37:26.808Z,2.12
2023-03-10T01:41:26.908Z,2.18
2023-03-10T01:45:27.090Z,2.17
2023-03-10T01:49:27.264Z,2.59
2023-03-10T01:53:27.383Z,2.91
2023-03-10T01:57:27.551Z,2.50
2023-03-10T02:01:27.658Z,2.43
2023-03-10T02:05:27.813Z,2.20
2023-03-10T02:09:27.975Z,2.42
2023-03-10T02:13:28.147Z,2.03
2023-03-10T02:17:28.391Z,2.40
2023-03-10T02:21:28.437Z,2.24
2023-03-10T02:25:28.667Z,2.13
2023-03-10T02:29:28.813Z,2.60
2023-03-10T02:33:29.007Z,2.15
2023-03-10T02:37:29.161Z,2.02
2023-03-10T02:41:29.343Z,2.57
2023-03-10T02:45:29.543Z,2.39
2023-03-10T02:49:29.675Z,2.96
2023-03-10T02:53:29.920Z,2.03
2023-03-10T02:57:30.016Z,2.35
2023-03-10T03:01:30.326Z,2.49
2023-03-10T03:05:30.415Z,2.20
2023-03-10T03:09:30.599Z,2.99
2023-03-10T03:13:30.778Z,2.45
2023-03-10T03:17:31.017Z,2.34
2023-03-10T03:21:31.218Z,2.51
2023-03-10T03:25:31.429Z,1.90
2023-03-10T03:29:31.410Z,2.29
2023-03-10T03:33:31.378Z,2.66
2023-03-10T03:37:31.317Z,2.12
2023-03-10T03:41:31.300Z,1.82
2023-03-10T03:45:31.253Z,1.97
2023-03-10T03:49:31.225Z,2.50
2023-03-10T03:53:31.188Z,1.95
2023-03-10T03:57:31.152Z,2.37
2023-03-10T04:01:31.105Z,1.96
2023-03-10T04:05:31.092Z,1.99
2023-03-10T04:09:31.293Z,2.46
2023-03-10T04:13:31.405Z,2.44
2023-03-10T04:17:31.645Z,2.86
2023-03-10T04:21:31.614Z,2.23
2023-03-10T04:25:31.569Z,2.46
2023-03-10T04:29:31.493Z,2.43
2023-03-10T04:33:31.503Z,2.62
2023-03-10T04:37:31.480Z,2.32
2023-03-10T04:41:31.408Z,2.22
2023-03-10T04:45:31.372Z,2.10
2023-03-10T04:49:31.342Z,2.32
2023-03-10T04:53:31.352Z,2.10
2023-03-10T04:57:31.400Z,2.39
2023-03-10T05:01:31.407Z,1.95
2023-03-10T05:05:31.305Z,2.49
2023-03-10T05:09:31.309Z,2.23
2023-03-10T05:13:31.925Z,2.27
2023-03-10T05:17:31.228Z,2.39
2023-03-10T05:21:31.182Z,2.19
2023-03-10T05:25:31.126Z,1.74
2023-03-10T05:29:31.101Z,2.22
2023-03-10T05:33:31.604Z,1.95
2023-03-10T05:37:31.050Z,2.41
2023-03-10T05:41:31.011Z,1.91
2023-03-10T05:45:30.972Z,1.78
2023-03-10T05:49:30.940Z,2.16
2023-03-10T05:53:30.919Z,2.22
2023-03-10T05:57:30.869Z,2.21
2023-03-10T06:01:30.883Z,2.07
2023-03-10T06:05:30.808Z,2.26
2023-03-10T06:09:30.788Z,2.08
2023-03-10T06:13:30.728Z,2.16
2023-03-10T06:17:30.721Z,2.03
2023-03-10T06:21:30.913Z,1.83
2023-03-10T06:25:31.133Z,1.95
2023-03-10T06:29:31.353Z,1.94
2023-03-10T06:33:31.659Z,1.96
2023-03-10T06:37:31.625Z,1.96
2023-03-10T06:41:31.534Z,1.96
2023-03-10T06:45:31.639Z,2.02
2023-03-10T06:49:31.613Z,2.04
2023-03-10T06:53:31.394Z,2.32
2023-03-10T06:57:31.633Z,2.29
2023-03-10T07:01:31.781Z,1.97
2023-03-10T07:05:31.280Z,1.79
2023-03-10T07:09:31.244Z,1.93
2023-03-10T07:13:31.199Z,1.76
2023-03-10T07:17:31.191Z,1.96
2023-03-10T07:21:31.634Z,2.20
2023-03-10T07:25:31.480Z,1.88
2023-03-10T07:29:31.715Z,1.93
2023-03-10T07:33:31.926Z,2.20
2023-03-10T07:37:32.168Z,2.59
2023-03-10T07:41:32.341Z,2.11
2023-03-10T07:45:32.528Z,1.75
2023-03-10T07:49:33.149Z,2.49
2023-03-10T07:53:33.181Z,2.89
2023-03-10T07:57:33.156Z,3.56
2023-03-10T08:01:33.301Z,4.47
2023-03-10T08:05:33.529Z,4.23
2023-03-10T08:09:33.653Z,4.21
2023-03-10T08:13:33.695Z,3.70
2023-03-10T08:17:33.722Z,3.96
2023-03-10T08:21:33.566Z,3.76
2023-03-10T08:25:33.542Z,3.42
2023-03-10T08:29:33.477Z,3.87
2023-03-10T08:33:33.443Z,3.66
2023-03-10T08:37:33.691Z,3.73
2023-03-10T08:41:35.511Z,3.72
2023-03-10T08:45:33.697Z,3.97
2023-03-10T08:49:33.683Z,3.93
2023-03-10T08:53:33.668Z,3.49
2023-03-10T08:57:33.270Z,3.47
2023-03-10T09:01:33.703Z,3.83
2023-03-10T09:05:33.181Z,3.73
2023-03-10T09:09:33.186Z,2.76
2023-03-10T09:13:33.109Z,2.91
2023-03-10T09:17:33.186Z,3.40
2023-03-10T09:21:33.808Z,3.48
2023-03-10T09:25:33.205Z,3.33
2023-03-10T09:29:42.680Z,3.47
2023-03-10T09:33:33.917Z,2.47
2023-03-10T09:37:33.196Z,3.02
2023-03-10T09:41:35.116Z,3.35
2023-03-10T09:45:33.081Z,3.42
2023-03-10T09:49:33.213Z,3.08
2023-03-10T09:53:33.219Z,3.01
2023-03-10T09:57:32.919Z,3.17
2023-03-10T10:01:32.887Z,2.95
2023-03-10T10:05:33.214Z,2.99
2023-03-10T10:09:32.805Z,3.35
2023-03-10T10:13:32.804Z,2.74
2023-03-10T10:17:35.439Z,3.20
2023-03-10T10:21:41.702Z,3.24
2023-03-10T10:25:33.746Z,3.34
2023-03-10T10:29:32.698Z,2.93
2023-03-10T10:33:32.830Z,3.43
2023-03-10T10:37:35.620Z,2.58
2023-03-10T10:41:33.208Z,3.02
2023-03-10T10:45:33.217Z,3.47
2023-03-10T10:49:32.972Z,3.32
2023-03-10T10:53:33.209Z,3.30
2023-03-10T10:57:33.748Z,3.48
2023-03-10T11:01:33.524Z,3.55
2023-03-10T11:05:33.613Z,3.40
2023-03-10T11:09:33.775Z,3.27
2023-03-10T11:13:34.247Z,3.29
2023-03-10T11:17:34.071Z,3.03
2023-03-10T11:21:34.281Z,3.48
2023-03-10T11:25:34.334Z,3.01
2023-03-10T11:29:34.814Z,3.45
2023-03-10T11:33:34.604Z,3.82
2023-03-10T11:37:34.709Z,2.98
2023-03-10T11:41:35.230Z,3.24
2023-03-10T11:45:35.005Z,3.54
2023-03-10T11:49:35.237Z,3.72
2023-03-10T11:53:35.412Z,2.70
2023-03-10T11:57:35.738Z,3.23
2023-03-10T12:01:35.599Z,2.54
2023-03-10T12:05:35.799Z,2.88
2023-03-10T12:09:35.516Z,3.07
2023-03-10T12:13:35.482Z,2.94
2023-03-10T12:17:35.778Z,2.85
2023-03-10T12:21:35.402Z,3.14
2023-03-10T12:25:35.367Z,3.00
2023-03-10T12:29:35.763Z,2.88
2023-03-10T12:33:35.966Z,3.28
2023-03-10T12:37:35.736Z,2.90
2023-03-10T12:41:35.277Z,3.14
2023-03-10T12:45:35.258Z,2.93
2023-03-10T12:49:35.300Z,2.74
2023-03-10T12:53:35.317Z,2.81
2023-03-10T12:57:35.339Z,2.78
2023-03-10T13:01:36.679Z,2.65
2023-03-10T13:05:35.275Z,2.91
2023-03-10T13:09:35.215Z,2.76
2023-03-10T13:13:35.156Z,2.47
2023-03-10T13:17:35.138Z,2.94
2023-03-10T13:21:35.106Z,2.70
2023-03-10T13:25:35.089Z,2.48
2023-03-10T13:29:35.022Z,2.76
2023-03-10T13:33:43.019Z,2.33
2023-03-10T13:37:35.965Z,2.59
2023-03-10T13:41:34.933Z,6.91
2023-03-10T13:45:35.009Z,2.27
2023-03-10T13:49:34.847Z,2.32
2023-03-10T13:53:34.860Z,2.11
2023-03-10T13:57:34.769Z,2.35
2023-03-10T14:01:34.853Z,2.96
2023-03-10T14:05:34.716Z,2.36
2023-03-10T14:09:34.668Z,2.42
2023-03-10T14:13:34.655Z,2.37
2023-03-10T14:17:34.629Z,2.68
2023-03-10T14:21:34.608Z,1.95
2023-03-10T14:25:34.542Z,3.30
2023-03-10T14:29:34.496Z,2.53
2023-03-10T14:33:34.463Z,2.70
2023-03-10T14:37:34.447Z,2.31
2023-03-10T14:41:34.375Z,2.61
2023-03-10T14:45:34.443Z,2.35
2023-03-10T14:49:34.317Z,3.10
2023-03-10T14:53:34.287Z,2.60
2023-03-10T14:57:34.259Z,2.30
2023-03-10T15:01:34.303Z,2.44
2023-03-10T15:05:47.416Z,1.99
2023-03-10T15:09:35.157Z,2.28
2023-03-10T15:13:34.111Z,1.92
2023-03-10T15:17:34.067Z,2.43
2023-03-10T15:21:34.153Z,1.96
2023-03-10T15:25:34.279Z,1.90
2023-03-10T15:29:34.429Z,2.35
2023-03-10T15:33:34.591Z,2.41
2023-03-10T15:37:34.718Z,2.49
2023-03-10T15:41:34.915Z,2.54
2023-03-10T15:45:35.076Z,2.13
2023-03-10T15:49:35.210Z,1.75
2023-03-10T15:53:35.370Z,2.12
2023-03-10T15:57:35.538Z,2.72
2023-03-10T16:01:35.827Z,1.89
2023-03-10T16:05:35.894Z,2.11
2023-03-10T16:09:36.177Z,1.91
2023-03-10T16:13:36.339Z,2.05
2023-03-10T16:17:36.323Z,1.80
2023-03-10T16:21:36.306Z,1.96
2023-03-10T16:25:36.244Z,1.76
2023-03-10T16:29:36.195Z,1.28
2023-03-10T16:33:36.197Z,1.59
2023-03-10T16:37:36.152Z,2.00
2023-03-10T16:41:36.146Z,2.02
2023-03-10T16:45:36.077Z,1.55
2023-03-10T16:49:36.047Z,1.74
2023-03-10T16:53:36.011Z,1.63
2023-03-10T16:57:35.998Z,1.75
2023-03-10T17:01:36.084Z,1.91
2023-03-10T17:05:35.996Z,1.94
2023-03-10T17:09:35.992Z,1.73
2023-03-10T17:13:36.070Z,1.60
2023-03-10T17:17:35.935Z,1.41
2023-03-10T17:21:36.118Z,1.32
2023-03-10T17:25:35.944Z,1.40
2023-03-10T17:29:35.953Z,1.46
2023-03-10T17:33:35.908Z,1.54
2023-03-10T17:37:35.915Z,1.51
2023-03-10T17:41:35.936Z,1.47
2023-03-10T17:45:36.032Z,1.48
2023-03-10T17:49:36.043Z,1.55
2023-03-10T17:53:36.048Z,1.36
2023-03-10T17:57:36.106Z,1.47
2023-03-10T18:01:36.171Z,1.52
2023-03-10T18:05:36.209Z,1.25
2023-03-10T18:09:36.301Z,1.33
2023-03-10T18:13:36.399Z,1.39
2023-03-10T18:17:36.474Z,1.37
2023-03-10T18:21:36.625Z,1.57
2023-03-10T18:25:36.781Z,1.38
2023-03-10T18:29:36.963Z,1.48
2023-03-10T18:33:37.132Z,1.23
2023-03-10T18:37:37.311Z,1.29
2023-03-10T18:41:37.458Z,1.55
2023-03-10T18:45:37.571Z,1.22
2023-03-10T18:49:37.729Z,1.26
2023-03-10T18:53:37.876Z,1.09
2023-03-10T18:57:37.983Z,1.47
2023-03-10T19:01:38.178Z,1.68
2023-03-10T19:05:38.262Z,1.42
2023-03-10T19:09:38.498Z,1.33
2023-03-10T19:13:38.653Z,1.39
2023-03-10T19:17:38.797Z,1.34
2023-03-10T19:21:38.965Z,1.62
2023-03-10T19:25:39.111Z,1.25
2023-03-10T19:29:39.269Z,1.34
2023-03-10T19:33:39.419Z,1.34
2023-03-10T19:37:39.577Z,1.54
2023-03-10T19:41:39.761Z,2.08
2023-03-10T19:45:39.922Z,1.70
2023-03-10T19:49:40.077Z,1.43
2023-03-10T19:53:40.196Z,1.02
2023-03-10T19:57:40.365Z,1.31
2023-03-10T20:01:40.527Z,1.14
2023-03-10T20:05:40.690Z,1.54
2023-03-10T20:09:40.861Z,1.40
2023-03-10T20:13:41.066Z,1.07
2023-03-10T20:17:41.251Z,1.14
2023-03-10T20:21:41.377Z,1.00
2023-03-10T20:25:41.594Z,1.55
2023-03-10T20:29:41.743Z,1.27
2023-03-10T20:33:41.937Z,1.51
2023-03-10T20:37:42.150Z,1.23
2023-03-10T20:41:44.902Z,0.99
2023-03-10T20:45:42.353Z,1.02
2023-03-10T20:49:42.209Z,1.06
2023-03-10T20:53:42.215Z,0.92
2023-03-10T20:57:42.165Z,1.17
2023-03-10T21:01:42.158Z,1.14
2023-03-10T21:05:42.075Z,0.77
2023-03-10T21:09:42.052Z,0.66
2023-03-10T21:13:42.018Z,0.99
2023-03-10T21:17:41.956Z,0.97
2023-03-10T21:21:41.955Z,1.00
2023-03-10T21:25:41.941Z,1.02
2023-03-10T21:29:42.030Z,0.96
2023-03-10T21:33:42.135Z,0.90
2023-03-10T21:37:42.432Z,0.97
2023-03-10T21:41:42.467Z,1.04
2023-03-10T21:45:42.663Z,1.35
2023-03-10T21:49:42.835Z,1.15
2023-03-10T21:53:43.043Z,0.90
2023-03-10T21:57:43.196Z,0.97
2023-03-10T22:01:43.461Z,0.87
2023-03-10T22:05:43.593Z,1.03
2023-03-10T22:09:43.745Z,0.86
2023-03-10T22:13:43.915Z,1.30
2023-03-10T22:17:44.144Z,0.81
2023-03-10T22:21:44.308Z,1.04
2023-03-10T22:25:44.526Z,0.76
2023-03-10T22:29:44.740Z,0.83
2023-03-10T22:33:44.707Z,0.75
2023-03-10T22:37:44.622Z,0.55
2023-03-10T22:41:44.650Z,0.77
2023-03-10T22:45:44.638Z,0.91
2023-03-10T22:49:44.553Z,0.66
2023-03-10T22:53:44.540Z,0.70
2023-03-10T22:57:44.510Z,0.65
2023-03-10T23:01:44.478Z,1.16
2023-03-10T23:05:44.429Z,0.65
2023-03-10T23:09:44.390Z,0.72
2023-03-10T23:13:44.406Z,0.67
2023-03-10T23:17:44.358Z,0.71
2023-03-10T23:21:44.364Z,0.59
2023-03-10T23:25:44.289Z,0.67
2023-03-10T23:29:44.277Z,0.86
2023-03-10T23:33:44.222Z,0.93
2023-03-10T23:37:44.207Z,0.71
2023-03-10T23:41:44.188Z,0.71
2023-03-10T23:45:44.166Z,0.55
2023-03-10T23:49:44.073Z,0.85
2023-03-10T23:53:44.051Z,0.52
2023-03-10T23:57:44.058Z,0.74
